Time;durP1;ratioP1;P1;durP2;ratioP2;P2;SDS_P1;SDS_P2;PMS_P1;PMS_P2;Temp;Humidity;BMP_temperature;BMP_pressure;BME280_temperature;BME280_humidity;BME280_pressure;Samples;Min_cycle;Max_cycle;Signal;HPM_P1;HPM_P2
2022/06/30 00:00:44;;;;;;;3.35;1.48;;;14.40;99.90;;;;;;4980580;28;20520;-95
2022/06/30 00:03:10;;;;;;;7.80;1.77;;;14.30;99.90;;;;;;4979931;28;20034;-95
2022/06/30 00:05:36;;;;;;;2.10;1.52;;;14.30;99.90;;;;;;4978950;28;20038;-94
2022/06/30 00:08:02;;;;;;;2.88;1.38;;;14.30;99.90;;;;;;4979315;28;20047;-95
2022/06/30 00:10:28;;;;;;;1.67;1.33;;;14.30;99.90;;;;;;4979594;28;20030;-94
2022/06/30 00:12:54;;;;;;;4.38;1.35;;;14.20;99.90;;;;;;4979422;28;20034;-94
2022/06/30 00:15:20;;;;;;;2.13;1.30;;;14.20;99.90;;;;;;4979245;28;20149;-95
2022/06/30 00:17:47;;;;;;;2.08;1.40;;;14.20;99.90;;;;;;4979723;28;20030;-94
2022/06/30 00:20:12;;;;;;;4.60;1.55;;;14.20;99.90;;;;;;4979558;28;20030;-96
2022/06/30 00:22:38;;;;;;;2.90;1.30;;;14.20;99.90;;;;;;4981023;28;20519;-94
2022/06/30 00:25:07;;;;;;;1.42;1.30;;;14.20;99.90;;;;;;4981122;28;20073;-94
2022/06/30 00:27:33;;;;;;;2.17;1.30;;;14.20;99.90;;;;;;4979622;28;20046;-94
2022/06/30 00:29:59;;;;;;;3.13;1.20;;;14.30;99.90;;;;;;4980330;28;20090;-94
2022/06/30 00:32:24;;;;;;;3.45;1.67;;;14.30;99.90;;;;;;4979008;28;20032;-95
2022/06/30 00:34:50;;;;;;;2.80;1.55;;;14.30;99.90;;;;;;4979837;28;20473;-94
2022/06/30 00:37:16;;;;;;;3.25;1.55;;;14.20;99.90;;;;;;4979734;28;20066;-95
2022/06/30 00:39:41;;;;;;;3.22;1.67;;;14.20;99.90;;;;;;4997631;28;20113;-95
2022/06/30 00:42:08;;;;;;;3.45;1.45;;;14.20;99.90;;;;;;4979288;28;20090;-95
2022/06/30 00:44:33;;;;;;;2.45;1.50;;;14.20;99.90;;;;;;4980081;28;20061;-95
2022/06/30 00:47:00;;;;;;;4.80;1.80;;;14.20;99.90;;;;;;4986513;28;20018;-95
2022/06/30 00:49:29;;;;;;;3.72;1.83;;;14.10;99.90;;;;;;4993763;28;20034;-94
2022/06/30 00:51:54;;;;;;;5.30;1.45;;;14.10;99.90;;;;;;4986762;28;20034;-95
2022/06/30 00:54:22;;;;;;;3.33;1.55;;;14.10;99.90;;;;;;4982559;28;20081;-94
2022/06/30 00:56:49;;;;;;;1.58;1.30;;;14.10;99.90;;;;;;4983673;28;20054;-94
2022/06/30 00:59:17;;;;;;;2.40;1.40;;;14.10;99.90;;;;;;4979260;28;20030;-95
2022/06/30 01:01:44;;;;;;;7.25;1.55;;;14.10;99.90;;;;;;4979119;28;20026;-95
2022/06/30 01:04:12;;;;;;;3.85;1.70;;;14.10;99.90;;;;;;4979171;28;20034;-94
2022/06/30 01:06:39;;;;;;;4.32;1.50;;;14.10;99.90;;;;;;4978701;28;20034;-95
2022/06/30 01:09:05;;;;;;;2.10;1.25;;;14.00;99.90;;;;;;4978816;28;20027;-95
2022/06/30 01:14:15;;;;;;;3.97;1.80;;;13.90;99.90;;;;;;4995924;28;20499;-95
2022/06/30 01:16:41;;;;;;;3.60;1.88;;;13.90;99.90;;;;;;4978950;28;20073;-94
2022/06/30 01:19:07;;;;;;;5.18;1.77;;;13.80;99.90;;;;;;4978296;28;20052;-95
2022/06/30 01:21:33;;;;;;;3.72;1.80;;;13.80;99.90;;;;;;4978747;28;20046;-94
2022/06/30 01:23:58;;;;;;;7.45;1.80;;;13.80;99.90;;;;;;4977818;28;20353;-95
2022/06/30 01:26:30;;;;;;;2.58;1.85;;;13.70;99.90;;;;;;4978050;28;20049;-94
2022/06/30 01:28:56;;;;;;;3.35;1.95;;;13.80;99.90;;;;;;4977509;28;20030;-94
2022/06/30 01:31:23;;;;;;;2.65;1.70;;;13.80;99.90;;;;;;4978102;28;20113;-95
2022/06/30 01:33:49;;;;;;;3.63;1.63;;;13.80;99.90;;;;;;4978498;28;20050;-95
2022/06/30 01:36:15;;;;;;;4.30;1.90;;;13.80;99.90;;;;;;4978630;28;20030;-94
2022/06/30 01:38:41;;;;;;;2.35;1.58;;;13.70;99.90;;;;;;4977596;28;20544;-95
2022/06/30 01:41:07;;;;;;;6.53;1.75;;;13.70;99.90;;;;;;4977728;28;20064;-95
2022/06/30 01:43:33;;;;;;;3.70;1.75;;;13.70;99.90;;;;;;4976229;28;20026;-95
2022/06/30 01:45:58;;;;;;;3.17;1.60;;;13.70;99.90;;;;;;4978071;28;20037;-95
2022/06/30 01:48:24;;;;;;;4.43;1.90;;;13.70;99.90;;;;;;4977354;28;20041;-95
2022/06/30 01:50:50;;;;;;;3.25;1.60;;;13.60;99.90;;;;;;4977543;28;20117;-95
2022/06/30 01:53:16;;;;;;;5.50;1.90;;;13.70;99.90;;;;;;4977779;28;20034;-95
2022/06/30 01:55:41;;;;;;;2.88;2.15;;;13.70;99.90;;;;;;4977654;28;20498;-95
2022/06/30 01:58:07;;;;;;;3.40;1.85;;;13.60;99.90;;;;;;4977417;28;20034;-95
2022/06/30 02:00:33;;;;;;;2.72;1.55;;;13.60;99.90;;;;;;4977744;28;20048;-95
2022/06/30 02:02:59;;;;;;;3.22;2.17;;;13.60;99.90;;;;;;4978271;28;20488;-94
2022/06/30 02:05:26;;;;;;;2.47;1.83;;;13.60;99.90;;;;;;4979538;28;20085;-94
2022/06/30 02:07:52;;;;;;;3.58;1.80;;;13.50;99.90;;;;;;4985045;28;20035;-95
2022/06/30 02:10:20;;;;;;;4.28;1.80;;;13.50;99.90;;;;;;4978301;28;20068;-94
2022/06/30 02:12:47;;;;;;;3.25;2.10;;;13.50;99.90;;;;;;4978056;28;20026;-95
2022/06/30 02:15:33;;;;;;;3.35;1.75;;;13.50;99.90;;;;;;4978379;28;20126;-94
2022/06/30 02:18:01;;;;;;;4.28;1.83;;;13.50;99.90;;;;;;4979270;28;20027;-95
2022/06/30 02:20:27;;;;;;;2.47;1.75;;;13.50;99.90;;;;;;4979126;28;20491;-94
2022/06/30 02:22:56;;;;;;;2.15;1.83;;;13.40;99.90;;;;;;4979222;28;20054;-94
2022/06/30 02:25:23;;;;;;;3.22;1.92;;;13.30;99.90;;;;;;4988806;28;20061;-94
2022/06/30 02:27:49;;;;;;;3.92;2.03;;;13.30;99.90;;;;;;4996120;28;20034;-94
2022/06/30 02:30:16;;;;;;;4.80;2.35;;;13.30;99.90;;;;;;4993249;28;20026;-95
2022/06/30 02:32:43;;;;;;;2.70;1.83;;;13.40;99.90;;;;;;4999863;28;20066;-94
2022/06/30 02:35:09;;;;;;;4.50;1.80;;;13.30;99.90;;;;;;4999185;28;20077;-94
2022/06/30 02:37:35;;;;;;;4.45;1.90;;;13.40;99.90;;;;;;4990676;28;20034;-95
2022/06/30 02:40:01;;;;;;;2.85;2.40;;;13.40;99.90;;;;;;4983603;28;20027;-95
2022/06/30 02:42:27;;;;;;;4.57;2.00;;;13.30;99.90;;;;;;4986748;28;20069;-94
2022/06/30 02:44:52;;;;;;;3.92;1.52;;;13.30;99.90;;;;;;4979371;28;20027;-95
2022/06/30 02:47:18;;;;;;;3.47;1.85;;;13.30;99.90;;;;;;4978019;28;20097;-95
2022/06/30 02:49:44;;;;;;;3.13;2.00;;;13.30;99.90;;;;;;4977512;28;20457;-95
2022/06/30 02:52:10;;;;;;;4.43;1.88;;;13.20;99.90;;;;;;4977264;28;20295;-94
2022/06/30 02:54:36;;;;;;;2.70;1.80;;;13.20;99.90;;;;;;4978220;28;20026;-95
2022/06/30 02:57:01;;;;;;;2.90;1.67;;;13.20;99.90;;;;;;4995544;28;20060;-94
2022/06/30 02:59:27;;;;;;;9.65;2.00;;;13.20;99.90;;;;;;4981008;28;20360;-95
2022/06/30 03:01:53;;;;;;;3.65;1.98;;;13.20;99.90;;;;;;4981034;28;20496;-94
2022/06/30 03:04:21;;;;;;;3.30;1.80;;;13.20;99.90;;;;;;4976406;28;20023;-94
2022/06/30 03:06:47;;;;;;;2.75;2.00;;;13.20;99.90;;;;;;4961339;28;20055;-95
2022/06/30 03:09:12;;;;;;;3.33;1.58;;;13.20;99.90;;;;;;4959403;28;20485;-95
2022/06/30 03:11:39;;;;;;;3.17;1.98;;;13.20;99.90;;;;;;4961328;28;20037;-95
2022/06/30 03:14:05;;;;;;;2.63;1.90;;;13.20;99.90;;;;;;4961331;28;20477;-95
2022/06/30 03:16:31;;;;;;;3.83;2.35;;;13.20;99.90;;;;;;4960937;28;20476;-95
2022/06/30 03:18:57;;;;;;;5.15;1.95;;;13.20;99.90;;;;;;4961396;28;20033;-95
2022/06/30 03:21:22;;;;;;;4.25;2.00;;;13.10;99.90;;;;;;4961358;28;20073;-94
2022/06/30 03:23:49;;;;;;;5.30;2.38;;;13.10;99.90;;;;;;4961914;28;20035;-94
2022/06/30 03:26:16;;;;;;;2.05;1.67;;;13.10;99.90;;;;;;4969771;28;20077;-94
2022/06/30 03:28:42;;;;;;;2.30;1.95;;;13.10;99.90;;;;;;4964259;28;20023;-94
2022/06/30 03:31:08;;;;;;;3.65;2.03;;;13.00;99.90;;;;;;4962254;28;20026;-95
2022/06/30 03:33:33;;;;;;;2.03;1.73;;;13.00;99.90;;;;;;4960701;28;20031;-95
2022/06/30 03:35:59;;;;;;;3.65;1.80;;;13.00;99.90;;;;;;4961016;28;20026;-95
2022/06/30 03:38:25;;;;;;;5.35;2.30;;;13.00;99.90;;;;;;4960569;28;20385;-95
2022/06/30 03:40:51;;;;;;;4.88;2.05;;;13.00;99.90;;;;;;4960497;28;20035;-95
2022/06/30 03:43:17;;;;;;;4.10;2.20;;;13.00;99.90;;;;;;4961041;28;20026;-95
2022/06/30 03:45:43;;;;;;;3.42;1.90;;;12.90;99.90;;;;;;4961725;28;20050;-94
2022/06/30 03:48:09;;;;;;;3.58;1.90;;;13.00;99.90;;;;;;4961365;28;20046;-94
2022/06/30 03:50:35;;;;;;;3.65;2.38;;;13.00;99.90;;;;;;4965456;28;20019;-94
2022/06/30 03:53:01;;;;;;;3.40;1.88;;;12.90;99.90;;;;;;4963869;28;20141;-94
2022/06/30 03:55:27;;;;;;;5.55;2.17;;;12.90;99.90;;;;;;4962818;28;20030;-95
2022/06/30 03:57:53;;;;;;;4.93;2.35;;;12.90;99.90;;;;;;4962050;28;20053;-94
2022/06/30 04:00:19;;;;;;;5.07;2.15;;;12.90;99.90;;;;;;4961242;28;20026;-95
2022/06/30 04:02:45;;;;;;;3.63;2.30;;;12.90;99.90;;;;;;4960735;28;20033;-94
2022/06/30 04:05:11;;;;;;;5.22;2.28;;;12.80;99.90;;;;;;4960284;28;20130;-94
2022/06/30 04:07:41;;;;;;;5.30;2.10;;;12.80;99.90;;;;;;4959335;28;20140;-95
2022/06/30 04:10:08;;;;;;;5.10;2.17;;;12.80;99.90;;;;;;4960309;28;20086;-94
2022/06/30 04:12:34;;;;;;;3.25;2.40;;;12.80;99.90;;;;;;4960393;28;20037;-93
2022/06/30 04:15:00;;;;;;;8.32;2.83;;;12.90;99.90;;;;;;4960154;28;20054;-95
2022/06/30 04:17:26;;;;;;;6.05;2.30;;;12.90;99.90;;;;;;4960093;28;20029;-95
2022/06/30 04:19:51;;;;;;;5.15;2.08;;;12.90;99.90;;;;;;4960807;28;20469;-95
2022/06/30 04:22:17;;;;;;;4.25;2.40;;;12.90;99.90;;;;;;4960552;28;20051;-95
2022/06/30 04:24:43;;;;;;;5.65;2.33;;;12.90;99.90;;;;;;4961028;28;20691;-95
2022/06/30 04:27:08;;;;;;;5.22;2.38;;;12.90;99.90;;;;;;4961329;28;20043;-95
2022/06/30 04:29:34;;;;;;;5.80;2.15;;;12.90;99.90;;;;;;4968497;28;20046;-94
2022/06/30 04:34:45;;;;;;;4.50;2.63;;;13.00;99.90;;;;;;4977111;28;20033;-93
2022/06/30 04:37:10;;;;;;;2.75;2.28;;;13.00;99.90;;;;;;4958800;28;20030;-94
2022/06/30 04:39:36;;;;;;;5.82;2.33;;;13.00;99.90;;;;;;4958669;28;20499;-94
2022/06/30 04:42:02;;;;;;;5.40;2.20;;;13.00;99.90;;;;;;4960465;28;20033;-94
2022/06/30 04:44:27;;;;;;;7.18;2.53;;;12.90;99.90;;;;;;4963222;28;20027;-94
2022/06/30 04:46:53;;;;;;;2.38;1.90;;;12.90;99.90;;;;;;4971520;28;20038;-93
2022/06/30 04:49:19;;;;;;;7.40;3.00;;;12.90;99.90;;;;;;4962550;28;20046;-94
2022/06/30 04:51:44;;;;;;;5.70;2.40;;;12.90;99.90;;;;;;4960351;28;20133;-94
2022/06/30 04:54:10;;;;;;;5.13;2.72;;;12.90;99.90;;;;;;4960106;28;20038;-94
2022/06/30 04:56:36;;;;;;;10.10;4.25;;;12.90;99.90;;;;;;4961223;28;20346;-94
2022/06/30 04:59:02;;;;;;;4.43;2.70;;;13.00;99.90;;;;;;4960596;28;20031;-92
2022/06/30 05:01:27;;;;;;;4.38;2.67;;;13.00;99.90;;;;;;4959472;28;20377;-94
2022/06/30 05:03:53;;;;;;;5.78;3.03;;;13.00;99.90;;;;;;4959883;28;20022;-94
2022/06/30 05:06:19;;;;;;;7.50;2.80;;;13.00;99.90;;;;;;4958731;28;20035;-94
2022/06/30 05:08:44;;;;;;;3.65;2.63;;;13.00;99.90;;;;;;4959841;28;20034;-94
2022/06/30 05:11:10;;;;;;;6.38;2.88;;;13.10;99.90;;;;;;4959766;28;20569;-94
2022/06/30 05:13:36;;;;;;;4.72;2.97;;;13.10;99.90;;;;;;4960229;28;20039;-94
2022/06/30 05:16:08;;;;;;;5.55;3.25;;;13.10;99.90;;;;;;4959797;28;20046;-94
2022/06/30 05:18:34;;;;;;;8.70;3.60;;;13.20;99.90;;;;;;4960038;28;20073;-94
2022/06/30 05:20:59;;;;;;;4.93;3.25;;;13.20;99.90;;;;;;4959229;28;20401;-94
2022/06/30 05:23:25;;;;;;;12.18;2.72;;;13.20;99.90;;;;;;4960262;28;20066;-94
2022/06/30 05:28:35;;;;;;;3.55;2.47;;;13.30;99.90;;;;;;4977145;28;20045;-94
2022/06/30 05:31:00;;;;;;;4.35;2.97;;;13.30;99.90;;;;;;4960516;28;20030;-94
2022/06/30 05:33:26;;;;;;;8.82;3.08;;;13.30;99.90;;;;;;4959796;28;20501;-95
2022/06/30 05:35:53;;;;;;;6.38;2.78;;;13.30;99.90;;;;;;4959102;28;20031;-94
2022/06/30 05:38:20;;;;;;;5.55;2.17;;;13.30;99.90;;;;;;4958839;28;20122;-94
2022/06/30 05:40:46;;;;;;;4.07;2.58;;;13.30;99.90;;;;;;4958892;28;20035;-94
2022/06/30 05:43:14;;;;;;;4.57;2.72;;;13.30;99.90;;;;;;4958926;28;20497;-94
2022/06/30 05:45:40;;;;;;;7.55;2.80;;;13.30;99.90;;;;;;4968383;28;20026;-95
2022/06/30 05:48:06;;;;;;;5.25;2.78;;;13.30;99.90;;;;;;4977417;28;20516;-94
2022/06/30 05:50:32;;;;;;;7.40;4.35;;;13.30;99.90;;;;;;4977277;28;20054;-94
2022/06/30 05:52:58;;;;;;;5.05;2.80;;;13.30;99.90;;;;;;4977038;28;20056;-94
2022/06/30 05:55:24;;;;;;;6.75;3.67;;;13.30;99.90;;;;;;4977161;28;20018;-94
2022/06/30 05:57:58;;;;;;;6.40;3.28;;;13.40;99.90;;;;;;4976912;28;20092;-94
2022/06/30 06:00:25;;;;;;;7.10;3.60;;;13.50;99.90;;;;;;4963293;28;20022;-95
2022/06/30 06:02:52;;;;;;;7.72;4.70;;;13.40;99.90;;;;;;4973510;28;20026;-94
2022/06/30 06:05:18;;;;;;;7.28;4.22;;;13.50;99.90;;;;;;4979830;28;20022;-95
2022/06/30 06:07:44;;;;;;;2.28;1.67;;;13.50;99.90;;;;;;4980569;28;20558;-94
2022/06/30 06:10:13;;;;;;;4.88;3.22;;;13.60;99.90;;;;;;4977868;28;20081;-95
2022/06/30 06:12:40;;;;;;;5.55;3.03;;;13.60;99.90;;;;;;4977032;28;20030;-94
2022/06/30 06:15:06;;;;;;;2.75;2.10;;;13.60;99.90;;;;;;4977158;28;20061;-94
2022/06/30 06:17:38;;;;;;;4.15;2.85;;;13.70;99.90;;;;;;4977595;28;20027;-95
2022/06/30 06:20:05;;;;;;;4.85;3.10;;;13.70;99.90;;;;;;4984358;28;20038;-95
2022/06/30 06:22:30;;;;;;;7.45;3.50;;;13.80;99.90;;;;;;4979421;28;20042;-95
2022/06/30 06:24:56;;;;;;;6.25;3.78;;;13.90;99.90;;;;;;4976641;28;20037;-95
2022/06/30 06:27:22;;;;;;;7.18;5.13;;;13.90;99.90;;;;;;4977513;28;20094;-94
2022/06/30 06:29:47;;;;;;;7.55;4.55;;;14.00;99.90;;;;;;4975427;28;20026;-94
2022/06/30 06:32:13;;;;;;;11.27;5.75;;;14.10;99.90;;;;;;4976395;28;20023;-91
2022/06/30 06:34:39;;;;;;;11.65;5.30;;;14.10;99.90;;;;;;4975828;28;20022;-93
2022/06/30 06:37:04;;;;;;;8.48;5.00;;;14.20;99.90;;;;;;4977306;28;20030;-94
2022/06/30 06:39:30;;;;;;;6.18;4.25;;;14.20;99.90;;;;;;4978212;28;20046;-95
2022/06/30 06:41:56;;;;;;;8.80;4.68;;;14.30;99.90;;;;;;4978516;28;20264;-94
2022/06/30 06:44:22;;;;;;;5.70;4.47;;;14.40;99.90;;;;;;4979126;28;20484;-94
2022/06/30 06:46:47;;;;;;;8.27;4.93;;;14.40;99.90;;;;;;4979799;28;20085;-94
2022/06/30 06:49:13;;;;;;;11.02;4.60;;;14.50;99.90;;;;;;4996457;28;20053;-93
2022/06/30 06:51:39;;;;;;;8.63;4.03;;;14.50;99.90;;;;;;4993142;28;20022;-94
2022/06/30 06:54:04;;;;;;;9.38;3.97;;;14.60;99.90;;;;;;4979167;28;20034;-94
2022/06/30 06:56:30;;;;;;;7.45;4.18;;;14.70;99.90;;;;;;4971253;28;20023;-94
2022/06/30 06:58:56;;;;;;;11.77;4.50;;;14.80;99.90;;;;;;4970260;28;20054;-95
2022/06/30 07:01:21;;;;;;;5.68;4.18;;;14.90;99.90;;;;;;4977491;28;20527;-94
2022/06/30 07:03:47;;;;;;;6.82;3.00;;;14.90;99.90;;;;;;4979040;28;20031;-94
2022/06/30 07:06:13;;;;;;;5.10;2.40;;;15.00;99.90;;;;;;4976742;28;20034;-93
2022/06/30 07:08:39;;;;;;;7.75;2.78;;;15.00;99.90;;;;;;4978077;28;20126;-95
2022/06/30 07:11:05;;;;;;;7.13;2.55;;;15.00;99.90;;;;;;4976290;28;20026;-95
2022/06/30 07:13:32;;;;;;;5.88;2.75;;;15.00;99.90;;;;;;4976942;28;20038;-94
2022/06/30 07:15:59;;;;;;;5.78;2.45;;;15.10;99.90;;;;;;4994263;28;20119;-94
2022/06/30 07:18:24;;;;;;;8.45;2.33;;;15.10;99.90;;;;;;4977407;28;20110;-94
2022/06/30 07:20:50;;;;;;;5.63;2.05;;;15.10;99.90;;;;;;4976728;28;20476;-94
2022/06/30 07:23:16;;;;;;;5.82;2.55;;;15.10;99.90;;;;;;4979629;28;20034;-94
2022/06/30 07:25:42;;;;;;;5.88;1.73;;;15.30;99.90;;;;;;4988709;28;20026;-93
2022/06/30 07:28:07;;;;;;;5.70;2.05;;;15.40;99.90;;;;;;4978164;28;20035;-94
2022/06/30 07:30:33;;;;;;;3.55;1.67;;;15.60;99.90;;;;;;4977777;28;20089;-95
2022/06/30 07:32:59;;;;;;;5.53;1.88;;;15.60;99.90;;;;;;4976446;28;20038;-94
2022/06/30 07:35:25;;;;;;;3.47;1.80;;;15.70;99.90;;;;;;4975809;28;20022;-95
2022/06/30 07:37:51;;;;;;;4.53;1.70;;;15.70;99.90;;;;;;4977482;28;20022;-95
2022/06/30 07:40:17;;;;;;;4.32;1.40;;;15.70;99.90;;;;;;4978442;28;20022;-96
2022/06/30 07:42:43;;;;;;;4.22;1.30;;;15.70;99.90;;;;;;4978465;28;20056;-94
2022/06/30 07:45:10;;;;;;;4.05;1.75;;;15.70;99.90;;;;;;4978941;28;20030;-96
2022/06/30 07:47:43;;;;;;;4.63;1.63;;;15.60;99.90;;;;;;4978313;28;20251;-95
2022/06/30 07:50:09;;;;;;;2.80;1.48;;;15.60;99.90;;;;;;4973006;28;20477;-95
2022/06/30 07:52:35;;;;;;;3.47;1.08;;;15.60;99.90;;;;;;4961712;28;20030;-95
2022/06/30 07:55:02;;;;;;;5.45;1.40;;;15.60;99.90;;;;;;4981433;28;20032;-95
2022/06/30 07:57:28;;;;;;;7.78;1.30;;;15.60;99.90;;;;;;4988380;28;20709;-96
2022/06/30 07:59:54;;;;;;;2.58;1.38;;;15.60;99.90;;;;;;4980289;28;20022;-94
2022/06/30 08:02:20;;;;;;;4.15;1.27;;;15.60;99.90;;;;;;4980498;28;20085;-95
2022/06/30 08:04:46;;;;;;;5.35;1.65;;;15.60;99.90;;;;;;4979525;28;20447;-96
2022/06/30 08:07:12;;;;;;;4.40;1.60;;;15.60;99.90;;;;;;4970719;28;20369;-94
2022/06/30 08:09:38;;;;;;;6.55;1.45;;;15.70;99.90;;;;;;4974992;28;20022;-96
2022/06/30 08:12:06;;;;;;;3.63;1.15;;;15.80;99.90;;;;;;5000824;28;20022;-94
2022/06/30 08:14:32;;;;;;;3.28;0.95;;;16.00;99.90;;;;;;4982412;28;20026;-95
2022/06/30 08:16:59;;;;;;;8.05;1.48;;;16.10;99.90;;;;;;4980506;28;20030;-94
2022/06/30 08:19:24;;;;;;;3.17;1.00;;;16.10;99.90;;;;;;4980520;28;20027;-94
2022/06/30 08:21:50;;;;;;;2.63;1.15;;;16.00;99.90;;;;;;4961862;28;20061;-95
2022/06/30 08:24:19;;;;;;;4.30;1.40;;;16.00;99.90;;;;;;4955510;29;20024;-96
2022/06/30 08:26:45;;;;;;;3.42;1.08;;;16.00;99.90;;;;;;4944749;28;20078;-94
2022/06/30 08:29:12;;;;;;;7.40;1.38;;;16.10;99.90;;;;;;4960787;28;20026;-95
2022/06/30 08:31:39;;;;;;;3.75;1.50;;;16.10;99.90;;;;;;4961052;28;20029;-95
2022/06/30 08:34:05;;;;;;;3.10;1.00;;;16.20;99.90;;;;;;4960361;28;20022;-94
2022/06/30 08:36:31;;;;;;;3.08;1.08;;;16.30;99.90;;;;;;4960894;28;20029;-94
2022/06/30 08:38:56;;;;;;;2.72;1.13;;;16.30;99.90;;;;;;4960818;28;20476;-94
2022/06/30 08:44:08;;;;;;;4.05;1.20;;;16.40;99.90;;;;;;4988562;28;20095;-95
2022/06/30 08:46:38;;;;;;;1.98;0.90;;;16.70;99.90;;;;;;4965648;28;20098;-96
2022/06/30 08:49:04;;;;;;;3.33;1.00;;;16.90;99.90;;;;;;4962333;28;20031;-94
2022/06/30 08:51:36;;;;;;;5.22;0.90;;;17.00;99.90;;;;;;4960668;28;20018;-92
2022/06/30 08:54:03;;;;;;;4.20;1.10;;;17.10;99.90;;;;;;4958928;28;20026;-95
2022/06/30 08:56:34;;;;;;;3.97;0.93;;;17.10;99.90;;;;;;4962270;28;20023;-95
2022/06/30 08:59:03;;;;;;;5.30;1.77;;;17.10;99.90;;;;;;4961102;28;20035;-95
2022/06/30 09:01:29;;;;;;;5.90;1.42;;;17.20;99.90;;;;;;4961250;28;20023;-95
2022/06/30 09:03:56;;;;;;;1.60;0.80;;;17.20;99.90;;;;;;4960023;28;20042;-94
2022/06/30 09:06:22;;;;;;;5.15;1.05;;;17.20;99.90;;;;;;4959799;28;20027;-94
2022/06/30 09:08:49;;;;;;;1.98;0.75;;;17.20;99.60;;;;;;4959086;28;20026;-95
2022/06/30 09:11:15;;;;;;;4.00;0.73;;;17.20;99.20;;;;;;4959487;28;20022;-95
2022/06/30 09:13:48;;;;;;;4.43;0.70;;;17.20;98.70;;;;;;4958922;28;20223;-94
2022/06/30 09:16:15;;;;;;;4.00;0.88;;;17.30;98.20;;;;;;4959012;28;20568;-93
2022/06/30 09:18:41;;;;;;;3.35;0.98;;;17.40;98.10;;;;;;4958701;28;20042;-93
2022/06/30 09:21:19;;;;;;;4.68;1.10;;;17.40;97.10;;;;;;4964671;28;20054;-94
2022/06/30 09:23:48;;;;;;;3.17;1.00;;;17.40;96.20;;;;;;4978916;28;20571;-93
2022/06/30 09:26:19;;;;;;;6.53;0.95;;;17.40;96.30;;;;;;4978608;28;20026;-94
2022/06/30 09:28:51;;;;;;;2.78;0.82;;;17.40;96.50;;;;;;4978822;28;20117;-92
2022/06/30 09:31:42;;;;;;;3.35;1.00;;;17.50;96.30;;;;;;4979733;28;20035;-93
2022/06/30 09:34:19;;;;;;;4.13;1.15;;;17.60;96.20;;;;;;4979162;28;20035;-94
2022/06/30 09:36:54;;;;;;;6.55;1.58;;;17.60;95.70;;;;;;4996619;28;20030;-94
2022/06/30 09:39:21;;;;;;;5.72;1.10;;;17.60;95.40;;;;;;4978919;28;20030;-94
2022/06/30 09:41:50;;;;;;;5.15;0.80;;;17.50;95.10;;;;;;4979082;28;20544;-94
2022/06/30 09:44:15;;;;;;;8.20;1.33;;;17.60;95.10;;;;;;4982064;28;20026;-95
2022/06/30 09:47:11;;;;;;;3.72;0.85;;;17.60;94.70;;;;;;4982564;28;20045;-94
2022/06/30 09:49:44;;;;;;;3.17;0.90;;;17.60;94.20;;;;;;4992864;28;20037;-94
2022/06/30 09:52:24;;;;;;;2.92;0.85;;;17.70;93.50;;;;;;4989013;28;20015;-95
2022/06/30 09:54:57;;;;;;;3.45;1.02;;;17.80;93.00;;;;;;4980883;28;20049;-96
2022/06/30 09:57:31;;;;;;;4.30;0.90;;;18.00;92.80;;;;;;4980446;28;20030;-94
2022/06/30 09:59:58;;;;;;;1.77;0.80;;;18.30;92.40;;;;;;4967926;28;20038;-96
2022/06/30 10:02:30;;;;;;;5.55;0.85;;;18.50;92.20;;;;;;4993610;28;20025;-95
2022/06/30 10:04:57;;;;;;;3.33;0.98;;;18.90;91.20;;;;;;4984904;28;20094;-94
2022/06/30 10:07:23;;;;;;;2.38;0.80;;;19.20;90.00;;;;;;4978573;28;20145;-94
2022/06/30 10:09:51;;;;;;;2.70;0.80;;;19.30;87.00;;;;;;4978534;28;20026;-94
2022/06/30 10:12:21;;;;;;;2.80;0.68;;;19.30;85.10;;;;;;4979664;28;20026;-96
2022/06/30 10:14:49;;;;;;;1.65;1.40;;;19.20;84.40;;;;;;4979812;28;20018;-95
2022/06/30 10:17:19;;;;;;;3.78;0.68;;;19.20;83.90;;;;;;4978908;28;20030;-95
2022/06/30 10:19:46;;;;;;;3.75;1.05;;;19.20;83.60;;;;;;4978612;28;20113;-95
2022/06/30 10:22:13;;;;;;;2.00;0.80;;;19.20;83.40;;;;;;4976024;28;20073;-94
2022/06/30 10:24:42;;;;;;;1.45;0.60;;;19.30;83.90;;;;;;4978534;28;20099;-94
2022/06/30 10:27:12;;;;;;;4.25;0.82;;;19.30;83.10;;;;;;4979118;28;20369;-94
2022/06/30 10:29:40;;;;;;;2.92;0.70;;;19.50;82.50;;;;;;4980721;28;20052;-96
2022/06/30 10:32:14;;;;;;;5.15;0.90;;;19.60;82.20;;;;;;4980340;28;20030;-95
2022/06/30 10:34:46;;;;;;;3.28;1.00;;;19.70;81.80;;;;;;4979402;28;20436;-95
2022/06/30 10:37:53;;;;;;;1.92;0.70;;;19.80;81.30;;;;;;4978979;28;20043;-96
2022/06/30 10:40:40;;;;;;;2.88;1.15;;;19.80;80.10;;;;;;4883230;29;20487;-94
2022/06/30 10:43:06;;;;;;;3.05;1.13;;;19.80;80.20;;;;;;4883134;29;20033;-93
2022/06/30 10:45:33;;;;;;;3.13;0.80;;;19.60;80.20;;;;;;4886136;29;20133;-95
2022/06/30 10:48:05;;;;;;;4.18;0.90;;;19.40;80.30;;;;;;4885469;29;20048;-95
2022/06/30 10:50:35;;;;;;;6.47;1.50;;;19.40;80.80;;;;;;4884621;29;20549;-95
2022/06/30 10:53:05;;;;;;;4.30;0.80;;;19.20;80.70;;;;;;4884226;29;20065;-95
2022/06/30 10:55:55;;;;;;;4.00;1.02;;;19.20;80.80;;;;;;4881170;29;20029;-95
2022/06/30 10:58:22;;;;;;;2.53;0.80;;;19.20;80.60;;;;;;4897916;29;20129;-96
2022/06/30 11:01:03;;;;;;;4.22;1.00;;;19.30;80.70;;;;;;4899467;29;20044;-95
2022/06/30 11:03:40;;;;;;;5.25;0.80;;;19.30;80.50;;;;;;4884632;29;20037;-95
2022/06/30 11:06:11;;;;;;;4.32;1.27;;;19.30;80.20;;;;;;4897961;29;20076;-95
2022/06/30 11:08:58;;;;;;;2.15;0.60;;;19.40;79.40;;;;;;4873634;29;20127;-94
2022/06/30 11:11:25;;;;;;;3.28;1.10;;;19.50;79.00;;;;;;4888213;29;20063;-94
2022/06/30 11:14:13;;;;;;;5.38;1.55;;;19.50;78.10;;;;;;4908794;28;20030;-95
2022/06/30 11:16:39;;;;;;;2.63;0.90;;;19.60;77.70;;;;;;4978719;28;20069;-93
2022/06/30 11:19:15;;;;;;;2.08;0.85;;;19.60;77.70;;;;;;4981642;28;20036;-96
2022/06/30 11:21:45;;;;;;;5.97;0.95;;;19.50;77.50;;;;;;4986498;28;20042;-94
2022/06/30 11:24:18;;;;;;;3.30;0.90;;;19.50;77.80;;;;;;5000189;28;20009;-95
2022/06/30 11:29:33;;;;;;;3.38;1.10;;;19.70;77.30;;;;;;4984935;28;20102;-93
2022/06/30 11:32:00;;;;;;;3.85;1.00;;;20.00;76.30;;;;;;4980015;28;20105;-94
2022/06/30 11:34:28;;;;;;;4.50;0.82;;;20.00;75.30;;;;;;4970783;28;20023;-94
2022/06/30 11:36:54;;;;;;;3.20;1.00;;;20.10;74.70;;;;;;4981084;28;20034;-93
2022/06/30 11:39:20;;;;;;;3.13;0.93;;;20.10;74.90;;;;;;4980270;28;20022;-94
2022/06/30 11:42:01;;;;;;;2.60;0.90;;;20.10;73.80;;;;;;4980968;28;20057;-94
2022/06/30 11:44:38;;;;;;;4.05;1.30;;;20.10;73.60;;;;;;4981059;28;20019;-93
2022/06/30 11:47:12;;;;;;;3.22;1.38;;;20.20;73.30;;;;;;4977994;28;20069;-94
2022/06/30 11:49:46;;;;;;;4.60;0.98;;;20.30;73.00;;;;;;4981132;28;20022;-94
2022/06/30 11:52:18;;;;;;;1.40;0.70;;;20.30;72.40;;;;;;4984125;28;20038;-93
2022/06/30 11:54:49;;;;;;;3.67;1.73;;;20.50;71.80;;;;;;4991807;28;20026;-95
2022/06/30 11:57:16;;;;;;;2.97;0.85;;;20.70;71.70;;;;;;4981392;28;20142;-94
2022/06/30 11:59:46;;;;;;;5.03;1.48;;;20.70;70.60;;;;;;4980470;28;20022;-93
2022/06/30 12:02:12;;;;;;;3.50;0.95;;;20.90;70.60;;;;;;4979846;28;20034;-92
2022/06/30 12:04:41;;;;;;;4.22;1.10;;;21.10;70.80;;;;;;4981566;28;20042;-94
2022/06/30 12:07:14;;;;;;;4.38;1.25;;;21.30;70.50;;;;;;4980366;28;20451;-96
2022/06/30 12:09:42;;;;;;;5.45;0.80;;;21.50;70.10;;;;;;4981561;28;20029;-94
2022/06/30 12:12:09;;;;;;;2.53;0.65;;;21.90;69.60;;;;;;4982000;28;20022;-93
2022/06/30 12:14:38;;;;;;;2.63;1.17;;;22.30;68.90;;;;;;4980620;28;20141;-94
2022/06/30 12:17:06;;;;;;;3.55;0.88;;;22.60;67.50;;;;;;4982622;28;20062;-94
2022/06/30 12:19:33;;;;;;;2.40;0.88;;;22.80;66.50;;;;;;4983573;28;20030;-93
2022/06/30 12:22:02;;;;;;;2.80;0.70;;;23.00;65.60;;;;;;4982189;28;20089;-94
2022/06/30 12:24:28;;;;;;;1.42;0.60;;;23.20;64.00;;;;;;4981479;28;20519;-94
2022/06/30 12:26:56;;;;;;;1.23;0.47;;;23.20;62.70;;;;;;4983124;28;20097;-93
2022/06/30 12:29:24;;;;;;;1.80;0.70;;;23.40;61.80;;;;;;4981609;28;20018;-95
2022/06/30 12:32:10;;;;;;;1.85;0.50;;;23.50;59.80;;;;;;4982725;28;20443;-92
2022/06/30 12:34:58;;;;;;;1.60;0.70;;;23.60;59.30;;;;;;4983503;28;20559;-92
2022/06/30 12:37:33;;;;;;;1.85;0.68;;;23.80;57.80;;;;;;4993059;28;20030;-93
2022/06/30 12:40:04;;;;;;;1.77;0.60;;;23.90;58.00;;;;;;4996096;28;20106;-93
2022/06/30 12:43:00;;;;;;;0.88;0.70;;;24.00;57.10;;;;;;5005296;28;20022;-92
2022/06/30 12:45:44;;;;;;;3.20;0.90;;;23.90;57.70;;;;;;4963472;28;20057;-93
2022/06/30 12:48:12;;;;;;;2.85;0.60;;;23.90;57.90;;;;;;4984682;28;20030;-94
2022/06/30 12:50:40;;;;;;;0.65;0.40;;;23.80;57.70;;;;;;4985085;28;20041;-92
2022/06/30 12:53:24;;;;;;;0.90;0.60;;;23.70;57.10;;;;;;4980737;28;20030;-91
2022/06/30 12:56:21;;;;;;;1.23;0.57;;;23.60;57.30;;;;;;4981039;28;20030;-93
2022/06/30 12:58:51;;;;;;;1.25;0.50;;;23.50;57.60;;;;;;4960554;28;20070;-93
2022/06/30 13:01:25;;;;;;;2.92;0.80;;;23.50;57.80;;;;;;4960970;28;20145;-93
2022/06/30 13:04:03;;;;;;;2.00;0.60;;;23.60;57.80;;;;;;4959409;28;20074;-94